createdAt,value
2018-12-23T00:00:53.728Z,6.23
2018-12-23T00:05:55.404Z,6.17
2018-12-23T00:10:57.090Z,6.40
2018-12-23T00:15:58.698Z,6.63
2018-12-23T00:21:01.060Z,7.87
2018-12-23T00:26:03.137Z,6.97
2018-12-23T00:31:06.462Z,7.37
2018-12-23T00:36:08.701Z,6.93
2018-12-23T00:41:10.445Z,8.70
2018-12-23T00:46:13.552Z,8.37
2018-12-23T00:51:15.633Z,7.60
2018-12-23T00:56:17.290Z,6.53
2018-12-23T01:01:19.396Z,7.80
2018-12-23T01:06:39.104Z,5.67
2018-12-23T01:11:43.327Z,5.60
2018-12-23T01:16:45.928Z,5.20
2018-12-23T01:21:48.190Z,4.93
2018-12-23T01:26:51.079Z,5.00
2018-12-23T01:31:52.779Z,3.73
2018-12-23T01:36:54.906Z,3.10
2018-12-23T01:41:56.743Z,4.23
2018-12-23T01:46:58.623Z,3.20
2018-12-23T01:52:00.909Z,4.00
2018-12-23T01:57:11.211Z,3.70
2018-12-23T02:02:13.265Z,3.90
2018-12-23T02:07:15.362Z,4.00
2018-12-23T02:12:17.476Z,3.90
2018-12-23T02:17:19.978Z,3.40
2018-12-23T02:22:22.123Z,3.77
2018-12-23T02:27:24.047Z,5.93
2018-12-23T02:32:25.986Z,3.70
2018-12-23T02:37:27.734Z,3.70
2018-12-23T02:42:30.066Z,4.10
2018-12-23T02:47:31.824Z,6.33
2018-12-23T02:52:33.832Z,6.50
2018-12-23T02:57:35.805Z,6.23
2018-12-23T03:02:38.214Z,5.53
2018-12-23T03:07:40.016Z,6.70
2018-12-23T03:12:45.034Z,7.07
2018-12-23T03:17:46.995Z,8.67
2018-12-23T03:22:49.194Z,8.63
2018-12-23T03:27:51.366Z,10.20
2018-12-23T03:32:54.144Z,7.90
2018-12-23T03:37:56.149Z,7.57
2018-12-23T03:42:57.910Z,7.20
2018-12-23T03:47:59.676Z,8.93
2018-12-23T03:53:02.092Z,8.90
2018-12-23T03:58:03.863Z,5.73
2018-12-23T04:03:06.273Z,6.80
2018-12-23T04:08:08.065Z,7.93
2018-12-23T04:13:10.264Z,5.90
2018-12-23T04:18:12.041Z,7.03
2018-12-23T04:23:14.043Z,6.17
2018-12-23T04:28:16.055Z,6.10
2018-12-23T04:33:18.875Z,6.50
2018-12-23T04:38:20.884Z,5.80
2018-12-23T04:43:22.681Z,5.00
2018-12-23T04:48:24.588Z,4.73
2018-12-23T04:53:26.869Z,6.70
2018-12-23T04:58:28.832Z,5.57
2018-12-23T05:03:30.817Z,4.23
2018-12-23T05:08:32.825Z,4.37
2018-12-23T05:13:35.038Z,4.47
2018-12-23T05:18:36.834Z,5.07
2018-12-23T05:23:38.841Z,5.20
2018-12-23T05:28:41.467Z,4.37
2018-12-23T05:33:43.470Z,4.13
2018-12-23T05:38:45.270Z,4.57
2018-12-23T05:43:47.688Z,4.30
2018-12-23T05:48:49.901Z,5.53
2018-12-23T05:53:52.114Z,7.17
2018-12-23T05:58:53.915Z,6.13
2018-12-23T06:03:55.712Z,5.50
2018-12-23T06:08:57.519Z,6.97
2018-12-23T06:13:59.323Z,5.97
2018-12-23T06:19:01.739Z,6.10
2018-12-23T06:24:03.521Z,6.90
2018-12-23T06:29:05.323Z,4.73
2018-12-23T06:34:07.843Z,5.00
2018-12-23T06:39:09.965Z,4.23
2018-12-23T06:44:11.761Z,4.20
2018-12-23T06:49:13.729Z,3.90
2018-12-23T06:54:15.895Z,3.70
2018-12-23T06:59:18.123Z,4.30
2018-12-23T07:04:19.925Z,4.83
2018-12-23T07:09:21.933Z,4.50
2018-12-23T07:14:23.735Z,4.00
2018-12-23T07:19:25.950Z,3.40
2018-12-23T07:24:27.757Z,2.70
2018-12-23T07:29:29.758Z,2.80
2018-12-23T07:34:31.539Z,2.90
2018-12-23T07:39:33.555Z,5.50
2018-12-23T07:44:35.551Z,4.07
2018-12-23T07:49:37.755Z,3.90
2018-12-23T07:54:39.750Z,3.03
2018-12-23T07:59:43.593Z,3.90
2018-12-23T08:04:45.393Z,3.03
2018-12-23T08:09:47.196Z,2.97
2018-12-23T08:14:48.998Z,3.60
2018-12-23T08:19:50.800Z,3.00
2018-12-23T08:24:52.604Z,2.80
2018-12-23T08:29:54.408Z,2.30
2018-12-23T08:34:56.210Z,2.60
2018-12-23T08:39:58.217Z,4.10
2018-12-23T08:45:00.022Z,4.90
2018-12-23T08:50:01.827Z,3.80
2018-12-23T08:55:03.830Z,4.00
2018-12-23T09:00:05.629Z,3.30
2018-12-23T09:05:07.438Z,4.03
2018-12-23T09:10:09.238Z,6.43
2018-12-23T09:15:11.247Z,4.60
2018-12-23T09:20:13.049Z,4.70
2018-12-23T09:25:14.851Z,4.90
2018-12-23T09:30:16.851Z,4.67
2018-12-23T09:35:18.853Z,7.53
2018-12-23T09:40:20.639Z,5.57
2018-12-23T09:45:22.749Z,6.47
2018-12-23T09:50:24.748Z,5.73
2018-12-23T09:55:26.546Z,5.27
2018-12-23T10:00:28.542Z,6.20
2018-12-23T10:05:30.172Z,4.97
2018-12-23T10:10:32.545Z,4.93
2018-12-23T10:15:34.233Z,5.40
2018-12-23T10:20:40.862Z,7.03
2018-12-23T10:25:42.853Z,6.77
2018-12-23T10:30:44.656Z,6.60
2018-12-23T10:35:46.452Z,5.10
2018-12-23T10:40:48.086Z,6.10
2018-12-23T10:45:49.844Z,5.60
2018-12-23T10:50:51.481Z,3.70
2018-12-23T10:55:53.746Z,6.73
2018-12-23T11:00:55.704Z,5.87
2018-12-23T11:05:57.444Z,4.10
2018-12-23T11:10:59.390Z,4.17
2018-12-23T11:16:10.428Z,4.83
2018-12-23T11:21:12.715Z,4.57
2018-12-23T11:26:19.175Z,4.93
2018-12-23T11:31:21.736Z,4.57
2018-12-23T11:36:23.467Z,4.17
2018-12-23T11:41:31.021Z,5.33
2018-12-23T11:46:33.277Z,5.10
2018-12-23T11:51:35.583Z,5.73
2018-12-23T11:56:37.694Z,5.93
2018-12-23T12:01:39.634Z,6.20
2018-12-23T12:06:41.349Z,4.87
2018-12-23T12:11:55.822Z,7.67
2018-12-23T12:16:58.106Z,6.30
2018-12-23T12:21:59.820Z,5.17
2018-12-23T12:27:01.531Z,4.43
2018-12-23T12:32:03.660Z,4.40
2018-12-23T12:37:05.370Z,6.00
2018-12-23T12:42:07.080Z,5.10
2018-12-23T12:47:08.723Z,4.73
2018-12-23T12:52:10.940Z,5.10
2018-12-23T12:57:12.651Z,4.53
2018-12-23T13:02:15.204Z,3.83
2018-12-23T13:07:17.327Z,4.70
2018-12-23T13:12:30.945Z,5.03
2018-12-23T13:17:38.174Z,4.60
2018-12-23T13:22:40.305Z,3.97
2018-12-23T13:27:51.224Z,5.17
2018-12-23T13:32:53.382Z,4.43
2018-12-23T13:37:55.306Z,3.53
2018-12-23T13:43:17.090Z,5.97
2018-12-23T13:48:30.099Z,5.00
2018-12-23T13:53:36.895Z,4.47
2018-12-23T13:58:45.174Z,3.80
2018-12-23T14:04:10.467Z,3.50
2018-12-23T14:09:21.154Z,4.23
2018-12-23T14:14:23.102Z,5.40
2018-12-23T14:19:25.447Z,4.53
2018-12-23T14:24:31.211Z,4.60
2018-12-23T14:29:33.375Z,3.70
2018-12-23T14:34:35.506Z,4.47
2018-12-23T14:39:38.860Z,3.73
2018-12-23T14:44:41.203Z,4.20
2018-12-23T14:49:43.733Z,4.10
2018-12-23T14:54:45.457Z,5.07
2018-12-23T14:59:53.303Z,6.17
2018-12-23T15:04:55.438Z,4.33
2018-12-23T15:10:02.513Z,5.40
2018-12-23T15:15:10.813Z,5.00
2018-12-23T15:20:20.240Z,5.60
2018-12-23T15:25:23.196Z,5.87
2018-12-23T15:30:26.558Z,5.73
2018-12-23T15:35:28.277Z,6.60
2018-12-23T15:40:30.198Z,6.63
2018-12-23T15:45:32.135Z,10.53
2018-12-23T15:50:34.035Z,6.47
2018-12-23T15:55:36.184Z,7.40
2018-12-23T16:00:38.511Z,6.57
2018-12-23T16:05:40.265Z,6.17
2018-12-23T16:10:42.690Z,6.90
2018-12-23T16:15:44.813Z,6.73
2018-12-23T16:20:46.530Z,7.40
2018-12-23T16:25:48.657Z,9.10
2018-12-23T16:30:50.577Z,7.70
2018-12-23T16:35:52.702Z,5.17
2018-12-23T16:40:54.422Z,5.93
2018-12-23T16:45:56.148Z,9.07
2018-12-23T16:50:57.865Z,7.37
2018-12-23T16:55:59.847Z,7.03
2018-12-23T17:01:02.171Z,5.77
2018-12-23T17:06:04.124Z,17.07
2018-12-23T17:11:17.006Z,14.93
2018-12-23T17:16:19.098Z,18.23
2018-12-23T17:21:21.126Z,19.37
2018-12-23T17:26:24.906Z,24.17
2018-12-23T17:31:27.084Z,16.93
2018-12-23T17:36:28.773Z,12.67
2018-12-23T17:41:30.643Z,12.23
2018-12-23T17:46:32.380Z,10.30
2018-12-23T17:51:34.534Z,9.13
2018-12-23T17:56:36.404Z,8.87
2018-12-23T18:01:38.281Z,8.20
2018-12-23T18:12:52.623Z,8.57
2018-12-23T18:17:54.529Z,5.73
2018-12-23T18:28:10.871Z,8.73
2018-12-23T18:33:12.597Z,7.50
2018-12-23T18:38:34.362Z,6.27
2018-12-23T18:43:43.116Z,5.40
2018-12-23T19:27:34.146Z,4.50
2018-12-23T19:33:08.327Z,3.90
2018-12-23T19:38:49.551Z,6.00
2018-12-23T19:44:31.056Z,6.40
2018-12-23T19:50:12.293Z,6.53
2018-12-23T20:12:33.841Z,6.13
2018-12-23T20:24:10.529Z,7.47
2018-12-23T20:46:54.404Z,11.90
2018-12-23T20:52:35.627Z,8.60
2018-12-23T20:58:16.881Z,8.80
2018-12-23T21:03:58.103Z,12.47
2018-12-23T21:09:13.244Z,7.27
2018-12-23T21:20:30.587Z,8.13
2018-12-23T21:26:11.814Z,7.70
2018-12-23T21:31:53.089Z,7.87
2018-12-23T21:43:10.445Z,17.27
2018-12-23T21:54:20.453Z,21.00
2018-12-23T21:59:54.749Z,17.23
2018-12-23T22:05:36.221Z,18.10
2018-12-23T22:10:51.582Z,13.70
2018-12-23T22:15:53.329Z,12.67
2018-12-23T22:20:55.150Z,13.50
2018-12-23T22:31:23.939Z,8.97
2018-12-23T22:46:54.926Z,11.60
2018-12-23T23:08:01.894Z,8.53
2018-12-23T23:29:26.797Z,4.87
2018-12-23T23:34:42.109Z,8.50
2018-12-23T23:39:57.172Z,7.63
2018-12-23T23:55:54.162Z,10.00
